Time;durP1;ratioP1;P1;durP2;ratioP2;P2;SDS_P1;SDS_P2;PMS_P1;PMS_P2;Temp;Humidity;BMP_temperature;BMP_pressure;BME280_temperature;BME280_humidity;BME280_pressure;Samples;Min_cycle;Max_cycle;Signal;HPM_P1;HPM_P2
2022/04/04 00:00:47;;;;;;;;;15.75;10.75;;;;;7.25;47.36;102151.94;2440567;28;45202;-85
2022/04/04 00:01:57;;;;;;;;;13.75;9.00;;;;;7.22;47.61;102155.41;2440133;28;47098;-87
2022/04/04 00:03:08;;;;;;;;;16.25;14.00;;;;;7.19;47.55;102151.03;2440924;28;45325;-87
2022/04/04 00:04:18;;;;;;;;;11.75;11.75;;;;;7.18;47.45;102153.66;2442427;28;45371;-87
2022/04/04 00:05:29;;;;;;;;;15.00;12.50;;;;;7.16;47.90;102164.09;2451742;27;44605;-95
2022/04/04 00:06:40;;;;;;;;;13.00;11.00;;;;;7.16;47.78;102158.03;2450425;28;48023;-95
2022/04/04 00:07:50;;;;;;;;;13.25;11.50;;;;;7.13;47.63;102161.50;2441106;28;45378;-96
2022/04/04 00:09:00;;;;;;;;;14.75;13.00;;;;;7.12;47.63;102172.81;2434655;28;47447;-93
2022/04/04 00:10:11;;;;;;;;;16.00;14.00;;;;;7.09;47.66;102165.81;2450826;28;45242;-89
2022/04/04 00:11:21;;;;;;;;;17.00;14.25;;;;;7.08;47.91;102165.81;2443731;27;46373;-90
2022/04/04 00:12:32;;;;;;;;;15.00;10.75;;;;;7.05;48.20;102160.56;2441315;28;45264;-91
2022/04/04 00:13:42;;;;;;;;;14.00;9.50;;;;;7.02;47.94;102157.94;2443877;28;45939;-92
2022/04/04 00:14:52;;;;;;;;;16.50;14.00;;;;;7.03;48.35;102162.31;2442266;28;45233;-91
2022/04/04 00:16:03;;;;;;;;;14.00;12.50;;;;;7.00;47.86;102163.16;2456000;27;46274;-92
2022/04/04 00:17:14;;;;;;;;;23.00;15.50;;;;;7.00;48.32;102171.00;2454944;27;45192;-91
2022/04/04 00:18:25;;;;;;;;;18.50;15.00;;;;;6.97;48.30;102165.75;2451967;27;45320;-91
2022/04/04 00:19:35;;;;;;;;;17.00;14.75;;;;;6.95;48.25;102164.88;2443155;28;45264;-91
2022/04/04 00:20:46;;;;;;;;;15.25;14.00;;;;;6.95;48.35;102167.50;2441837;28;48258;-92
2022/04/04 00:21:57;;;;;;;;;31.00;21.75;;;;;6.94;48.53;102168.38;2442652;28;45474;-92
2022/04/04 00:23:12;;;;;;;;;26.00;21.00;;;;;6.92;48.52;102170.97;2441884;28;47155;-92
2022/04/04 00:24:23;;;;;;;;;31.25;28.25;;;;;6.92;48.47;102170.09;2442662;28;45420;-91
2022/04/04 00:25:33;;;;;;;;;37.25;29.50;;;;;6.91;48.75;102174.47;2448215;28;48226;-92
2022/04/04 00:26:44;;;;;;;;;35.25;26.50;;;;;6.87;48.66;102167.44;2449613;28;45294;-92
2022/04/04 00:27:54;;;;;;;;;32.75;28.50;;;;;6.87;48.80;102167.44;2442775;28;45626;-91
2022/04/04 00:29:05;;;;;;;;;35.50;31.75;;;;;6.85;48.42;102166.56;2450677;28;44689;-92
2022/04/04 00:30:15;;;;;;;;;42.50;35.00;;;;;6.85;48.61;102166.56;2451398;28;47184;-93
2022/04/04 00:31:26;;;;;;;;;42.50;35.00;;;;;6.84;48.97;102162.22;2455046;27;45231;-92
2022/04/04 00:32:37;;;;;;;;;42.50;32.00;;;;;6.83;48.89;102165.69;2450520;27;46097;-92
2022/04/04 00:33:47;;;;;;;;;40.50;31.25;;;;;6.79;49.13;102156.94;2442337;28;44780;-92
2022/04/04 00:35:00;;;;;;;;;31.75;27.00;;;;;6.79;49.18;102161.31;2441744;28;48356;-92
2022/04/04 00:36:10;;;;;;;;;28.25;25.50;;;;;6.81;49.03;102162.19;2435244;28;44633;-92
2022/04/04 00:37:21;;;;;;;;;26.50;23.00;;;;;6.80;49.22;102150.88;2442155;28;45381;-91
2022/04/04 00:38:31;;;;;;;;;20.00;19.25;;;;;6.79;48.91;102158.72;2442428;28;45343;-91
2022/04/04 00:39:41;;;;;;;;;22.50;18.75;;;;;6.80;48.86;102155.22;2445716;28;47330;-92
2022/04/04 00:40:52;;;;;;;;;26.25;24.00;;;;;6.80;49.27;102156.09;2444786;28;45380;-92
2022/04/04 00:42:02;;;;;;;;;22.50;20.25;;;;;6.82;49.01;102161.31;2446318;28;45374;-92
2022/04/04 00:43:13;;;;;;;;;20.75;18.75;;;;;6.79;49.41;102148.25;2452326;28;45376;-86
2022/04/04 00:44:25;;;;;;;;;22.00;20.25;;;;;6.79;49.16;102149.09;2452174;27;45513;-85
2022/04/04 00:45:35;;;;;;;;;24.50;19.75;;;;;6.80;49.20;102149.97;2452338;27;44704;-89
2022/04/04 00:46:45;;;;;;;;;20.00;17.00;;;;;6.78;49.48;102152.59;2456023;27;47998;-87
2022/04/04 00:47:56;;;;;;;;;19.50;16.75;;;;;6.79;49.46;102148.25;2448925;28;45204;-86
2022/04/04 00:49:08;;;;;;;;;21.00;18.25;;;;;6.80;49.56;102157.81;2442250;28;46322;-84
2022/04/04 00:50:19;;;;;;;;;21.00;17.00;;;;;6.76;49.40;102146.50;2444013;28;45433;-84
2022/04/04 00:51:29;;;;;;;;;20.00;19.25;;;;;6.76;49.95;102154.34;2441626;28;47315;-86
2022/04/04 00:52:39;;;;;;;;;20.00;17.50;;;;;6.76;49.87;102154.34;2435619;28;45499;-85
2022/04/04 00:53:50;;;;;;;;;21.25;18.25;;;;;6.75;49.78;102153.44;2441778;28;45497;-86
2022/04/04 00:55:01;;;;;;;;;26.75;19.25;;;;;6.77;49.90;102147.34;2442393;28;45243;-85
2022/04/04 00:56:12;;;;;;;;;20.50;15.50;;;;;6.75;49.69;102148.22;2441580;28;47341;-90
2022/04/04 00:57:23;;;;;;;;;17.50;15.50;;;;;6.75;49.76;102152.56;2450986;27;45389;-90
2022/04/04 00:58:36;;;;;;;;;20.25;16.50;;;;;6.73;49.76;102144.72;2455904;27;46184;-90
2022/04/04 00:59:47;;;;;;;;;16.75;15.75;;;;;6.73;50.13;102149.97;2452461;27;45231;-90
2022/04/04 01:00:58;;;;;;;;;16.00;16.00;;;;;6.71;49.91;102146.47;2455594;27;47743;-91
2022/04/04 01:02:09;;;;;;;;;18.50;18.00;;;;;6.68;50.21;102146.44;2450210;28;45280;-90
2022/04/04 01:03:19;;;;;;;;;22.75;18.00;;;;;6.68;50.20;102143.81;2441915;28;45345;-90
2022/04/04 01:04:29;;;;;;;;;16.25;15.00;;;;;6.68;50.05;102146.44;2449744;28;45287;-91
2022/04/04 01:05:40;;;;;;;;;13.50;12.00;;;;;6.69;50.71;102142.94;2451954;27;45279;-90
2022/04/04 01:06:51;;;;;;;;;18.50;15.00;;;;;6.64;50.22;102145.53;2452214;28;45223;-90
2022/04/04 01:08:01;;;;;;;;;17.25;15.50;;;;;6.64;50.38;102145.53;2451885;27;45332;-90
2022/04/04 01:09:15;;;;;;;;;23.75;17.00;;;;;6.63;50.19;102146.41;2451314;27;45320;-89
2022/04/04 01:10:25;;;;;;;;;16.00;16.00;;;;;6.64;50.41;102145.53;2451347;27;46184;-88
2022/04/04 01:11:36;;;;;;;;;20.75;17.50;;;;;6.61;50.23;102142.94;2452256;27;45216;-87
2022/04/04 01:12:52;;;;;;;;;20.75;17.50;;;;;6.59;50.51;102141.16;2443455;27;46216;-88
2022/04/04 01:14:02;;;;;;;;;16.25;16.25;;;;;6.63;50.16;102148.16;2442382;28;45184;-91
2022/04/04 01:15:13;;;;;;;;;19.25;18.25;;;;;6.61;50.60;102142.94;2443444;28;47151;-90
2022/04/04 01:16:23;;;;;;;;;17.50;16.00;;;;;6.62;50.64;102138.53;2457646;27;45211;-90
2022/04/04 01:17:33;;;;;;;;;22.75;14.50;;;;;6.61;50.49;102142.03;2452089;27;45266;-90
2022/04/04 01:18:44;;;;;;;;;17.00;16.25;;;;;6.60;50.32;102140.28;2443221;28;44613;-90
2022/04/04 01:19:57;;;;;;;;;16.75;15.00;;;;;6.60;50.38;102138.53;2441265;28;47999;-90
2022/04/04 01:21:08;;;;;;;;;16.50;16.25;;;;;6.60;50.66;102130.72;2441808;28;44783;-90
2022/04/04 01:22:19;;;;;;;;;16.50;15.25;;;;;6.59;50.44;102133.31;2445873;28;48171;-90
2022/04/04 01:23:38;;;;;;;;;15.25;15.00;;;;;6.58;50.74;102131.56;2452976;27;45444;-89
2022/04/04 01:24:49;;;;;;;;;19.75;16.00;;;;;6.58;50.86;102129.84;2447477;28;46356;-90
2022/04/04 01:25:59;;;;;;;;;16.25;14.25;;;;;6.58;50.28;102140.28;2441248;28;45272;-90
2022/04/04 01:27:11;;;;;;;;;19.75;16.25;;;;;6.58;50.78;102136.78;2441365;28;45585;-90
2022/04/04 01:28:22;;;;;;;;;17.00;15.00;;;;;6.59;51.01;102138.56;2442191;28;45227;-90
2022/04/04 01:29:34;;;;;;;;;16.25;15.25;;;;;6.54;50.92;102135.91;2450354;28;45375;-90
2022/04/04 01:30:50;;;;;;;;;16.75;16.75;;;;;6.56;50.79;102135.91;2447023;27;45229;-89
2022/04/04 01:32:03;;;;;;;;;15.00;14.50;;;;;6.56;51.06;102136.78;2444286;28;45619;-90
2022/04/04 01:33:13;;;;;;;;;14.50;13.50;;;;;6.54;51.05;102135.91;2452031;27;45432;-91
2022/04/04 01:34:24;;;;;;;;;17.25;15.25;;;;;6.52;51.05;102128.03;2442654;28;47213;-91
2022/04/04 01:35:38;;;;;;;;;13.00;12.25;;;;;6.52;51.04;102125.44;2446450;28;45203;-91
2022/04/04 01:36:49;;;;;;;;;13.75;13.00;;;;;6.52;50.73;102125.44;2451311;28;47099;-92
2022/04/04 01:38:00;;;;;;;;;17.75;16.00;;;;;6.52;50.90;102128.03;2451488;28;45269;-92
2022/04/04 01:39:10;;;;;;;;;16.50;15.00;;;;;6.52;50.78;102128.03;2446760;27;45494;-92
2022/04/04 01:40:21;;;;;;;;;17.25;13.00;;;;;6.52;51.21;102129.78;2442212;28;45223;-91
2022/04/04 01:41:31;;;;;;;;;18.25;15.50;;;;;6.47;51.05;102116.69;2441386;28;46893;-91
2022/04/04 01:42:46;;;;;;;;;19.00;17.00;;;;;6.51;50.92;102121.09;2434347;28;44681;-90
2022/04/04 01:43:57;;;;;;;;;17.25;15.75;;;;;6.46;50.88;102119.31;2441640;28;45478;-90
2022/04/04 01:45:09;;;;;;;;;15.50;15.50;;;;;6.47;50.97;102118.44;2442206;28;45208;-89
2022/04/04 01:46:29;;;;;;;;;15.00;13.75;;;;;6.49;50.91;102124.56;2442196;28;46142;-89
2022/04/04 01:47:41;;;;;;;;;13.50;13.00;;;;;6.46;51.31;102120.19;2450350;28;45405;-90
2022/04/04 01:48:52;;;;;;;;;17.75;14.50;;;;;6.45;50.68;102117.53;2445440;28;45492;-92
2022/04/04 01:50:04;;;;;;;;;16.00;14.00;;;;;6.44;50.84;102118.41;2441382;28;45517;-92
2022/04/04 01:51:14;;;;;;;;;16.25;16.25;;;;;6.40;51.18;102114.91;2434159;28;47238;-91
2022/04/04 01:52:24;;;;;;;;;20.00;15.00;;;;;6.42;50.98;102113.16;2434225;28;45217;-88
2022/04/04 01:53:35;;;;;;;;;15.50;14.00;;;;;6.41;51.09;102111.44;2444395;28;47216;-88
2022/04/04 01:54:45;;;;;;;;;14.50;13.25;;;;;6.39;50.78;102113.16;2448727;28;45210;-88
2022/04/04 01:56:01;;;;;;;;;17.00;16.00;;;;;6.37;50.80;102107.91;2441972;28;47697;-91
2022/04/04 01:57:11;;;;;;;;;13.00;11.75;;;;;6.38;51.24;102104.44;2449001;28;45256;-92
2022/04/04 01:58:23;;;;;;;;;16.25;14.00;;;;;6.39;50.95;102107.94;2449473;27;45425;-91
2022/04/04 01:59:33;;;;;;;;;16.50;16.00;;;;;6.35;51.30;102106.16;2444253;27;44677;-92
2022/04/04 02:00:44;;;;;;;;;33.50;28.00;;;;;6.37;50.77;102117.50;2441969;28;45304;-93
2022/04/04 02:01:54;;;;;;;;;25.75;21.50;;;;;6.36;51.08;102107.91;2442430;28;45220;-93
2022/04/04 02:03:05;;;;;;;;;27.50;22.00;;;;;6.36;51.23;102111.41;2450101;28;47124;-91
2022/04/04 02:04:15;;;;;;;;;26.25;23.75;;;;;6.34;51.33;102109.66;2438726;28;45178;-91
2022/04/04 02:05:26;;;;;;;;;26.25;26.25;;;;;6.33;51.47;102108.75;2442697;28;46624;-90
2022/04/04 02:06:37;;;;;;;;;31.75;29.25;;;;;6.33;51.48;102107.88;2451869;27;45223;-92
2022/04/04 02:07:48;;;;;;;;;39.50;33.25;;;;;6.32;51.03;102112.25;2450802;28;47274;-93
2022/04/04 02:08:58;;;;;;;;;34.50;31.00;;;;;6.32;51.21;102114.00;2441274;28;45434;-92
2022/04/04 02:10:08;;;;;;;;;40.75;31.50;;;;;6.29;51.26;102102.66;2444088;28;48190;-92
2022/04/04 02:11:20;;;;;;;;;35.00;27.75;;;;;6.31;51.17;102107.88;2448617;27;45354;-92
2022/04/04 02:12:31;;;;;;;;;29.50;26.00;;;;;6.28;50.91;102105.25;2447347;28;45393;-87
2022/04/04 02:13:42;;;;;;;;;27.00;20.75;;;;;6.28;51.27;102103.50;2452083;27;45352;-96
2022/04/04 02:14:53;;;;;;;;;25.00;22.25;;;;;6.26;51.36;102105.25;2461207;27;47161;-94
2022/04/04 02:16:04;;;;;;;;;28.50;23.25;;;;;6.26;51.24;102105.25;2443372;28;45222;-85
2022/04/04 02:17:15;;;;;;;;;20.00;19.50;;;;;6.25;51.48;102102.59;2444822;28;46395;-87
2022/04/04 02:18:25;;;;;;;;;16.75;16.00;;;;;6.23;51.11;102100.00;2451543;27;45110;-87
2022/04/04 02:19:35;;;;;;;;;17.50;15.25;;;;;6.23;51.13;102097.38;2441470;28;45307;-89
2022/04/04 02:20:46;;;;;;;;;19.25;16.00;;;;;6.23;51.28;102097.38;2441686;28;45225;-88
2022/04/04 02:21:57;;;;;;;;;16.50;15.50;;;;;6.22;51.19;102094.78;2441586;28;47208;-89
2022/04/04 02:23:07;;;;;;;;;19.50;17.75;;;;;6.21;51.33;102098.22;2450972;28;45271;-88
2022/04/04 02:24:17;;;;;;;;;15.50;13.25;;;;;6.22;51.19;102102.59;2450596;28;47439;-89
2022/04/04 02:25:28;;;;;;;;;15.25;14.00;;;;;6.18;51.46;102093.84;2451323;28;45191;-89
2022/04/04 02:26:38;;;;;;;;;16.25;12.75;;;;;6.18;51.10;102096.47;2450738;28;46915;-89
2022/04/04 02:27:49;;;;;;;;;13.00;12.50;;;;;6.17;50.75;102099.97;2451054;28;45408;-89
2022/04/04 02:28:59;;;;;;;;;13.25;13.00;;;;;6.16;51.17;102091.25;2451054;27;45601;-91
2022/04/04 02:30:11;;;;;;;;;13.00;13.00;;;;;6.17;51.60;102097.34;2450986;28;45239;-92
2022/04/04 02:31:21;;;;;;;;;16.75;14.75;;;;;6.15;51.18;102086.03;2441992;28;45273;-93
2022/04/04 02:32:31;;;;;;;;;15.50;14.50;;;;;6.17;51.18;102089.50;2446428;28;45330;-92
2022/04/04 02:33:42;;;;;;;;;14.75;12.00;;;;;6.17;51.27;102094.75;2443938;28;46322;-94
2022/04/04 02:34:52;;;;;;;;;14.25;12.75;;;;;6.16;51.22;102093.84;2443864;28;45413;-91
2022/04/04 02:36:03;;;;;;;;;13.50;12.00;;;;;6.13;51.19;102086.00;2440888;28;48158;-91
2022/04/04 02:37:14;;;;;;;;;16.00;13.00;;;;;6.14;51.01;102084.25;2443512;28;44798;-91
2022/04/04 02:38:27;;;;;;;;;11.75;10.50;;;;;6.12;51.23;102091.22;2451092;27;45962;-90
2022/04/04 02:39:37;;;;;;;;;11.00;10.50;;;;;6.12;51.23;102093.81;2442096;28;45227;-91
2022/04/04 02:40:48;;;;;;;;;14.00;12.25;;;;;6.14;51.19;102094.72;2450616;28;45357;-91
2022/04/04 02:41:58;;;;;;;;;12.00;12.00;;;;;6.09;51.27;102089.44;2445983;27;45239;-91
2022/04/04 02:43:09;;;;;;;;;12.50;10.50;;;;;6.12;51.24;102080.78;2442432;28;48098;-91
2022/04/04 02:44:19;;;;;;;;;11.75;11.75;;;;;6.09;50.97;102084.22;2443799;28;45354;-91
2022/04/04 02:45:30;;;;;;;;;13.00;11.50;;;;;6.11;51.26;102086.84;2441028;28;46858;-91
2022/04/04 02:46:40;;;;;;;;;12.50;12.00;;;;;6.07;51.11;102081.59;2443959;28;45487;-91
2022/04/04 02:47:50;;;;;;;;;16.00;13.25;;;;;6.08;51.10;102087.69;2451455;27;45424;-91
2022/04/04 02:49:01;;;;;;;;;11.50;11.25;;;;;6.09;51.25;102086.84;2442312;27;45223;-90
2022/04/04 02:50:12;;;;;;;;;12.00;11.25;;;;;6.11;51.35;102086.84;2444050;28;45411;-91
2022/04/04 02:51:22;;;;;;;;;13.75;13.75;;;;;6.06;50.99;102081.56;2450753;28;45444;-91
2022/04/04 02:52:33;;;;;;;;;11.50;11.50;;;;;6.06;52.08;102078.94;2440395;28;46910;-91
2022/04/04 02:53:43;;;;;;;;;12.75;12.25;;;;;6.06;51.08;102079.81;2446360;28;44696;-91
2022/04/04 02:54:53;;;;;;;;;12.25;12.00;;;;;6.05;51.30;102080.69;2450526;28;47243;-91
2022/04/04 02:57:33;;;;;;;;;14.00;13.00;;;;;6.05;51.52;102083.28;2445404;28;45484;-92
2022/04/04 02:58:43;;;;;;;;;12.00;12.00;;;;;6.05;51.13;102082.44;2441801;28;45290;-93
2022/04/04 02:59:54;;;;;;;;;13.00;10.75;;;;;6.04;51.25;102081.56;2440932;28;47095;-92
2022/04/04 03:01:04;;;;;;;;;11.25;9.75;;;;;6.05;51.24;102085.91;2441386;28;45172;-93
2022/04/04 03:02:15;;;;;;;;;11.00;10.00;;;;;6.03;51.35;102084.13;2445169;28;47208;-93
2022/04/04 03:03:25;;;;;;;;;11.00;10.00;;;;;6.03;51.34;102082.41;2443127;28;45231;-94
2022/04/04 03:04:39;;;;;;;;;11.00;11.00;;;;;6.03;51.37;102079.78;2450915;27;47956;-94
2022/04/04 03:05:50;;;;;;;;;13.50;11.00;;;;;6.05;51.31;102082.44;2453288;27;45403;-93
2022/04/04 03:07:00;;;;;;;;;14.00;11.75;;;;;6.03;51.12;102081.53;2446451;28;47797;-93
2022/04/04 03:08:11;;;;;;;;;10.25;10.00;;;;;6.05;51.20;102080.69;2440970;28;45433;-93
2022/04/04 03:09:21;;;;;;;;;11.00;9.75;;;;;6.04;51.50;102073.72;2449217;28;46282;-93
2022/04/04 03:10:32;;;;;;;;;11.25;10.75;;;;;6.01;51.27;102071.09;2451011;28;45374;-93
2022/04/04 03:11:43;;;;;;;;;11.25;10.75;;;;;6.01;51.48;102073.69;2449918;28;45377;-92
2022/04/04 03:12:53;;;;;;;;;10.00;8.50;;;;;6.00;51.44;102071.94;2441988;28;45359;-91
2022/04/04 03:14:05;;;;;;;;;13.75;10.75;;;;;5.99;51.36;102062.38;2450750;28;47763;-94
2022/04/04 03:15:22;;;;;;;;;12.50;9.25;;;;;5.99;51.27;102069.31;2440997;28;45190;-93
2022/04/04 03:16:32;;;;;;;;;12.50;7.75;;;;;6.01;51.25;102070.19;2441800;28;47060;-92
2022/04/04 03:17:45;;;;;;;;;12.75;10.75;;;;;5.99;51.19;102064.97;2453719;27;45172;-91
2022/04/04 03:18:57;;;;;;;;;12.00;10.00;;;;;5.99;51.10;102064.97;2454927;27;46395;-91
2022/04/04 03:20:09;;;;;;;;;11.00;10.25;;;;;5.97;50.99;102062.34;2460439;27;45247;-92
2022/04/04 03:21:21;;;;;;;;;12.00;11.00;;;;;5.98;51.34;102068.44;2450423;28;47147;-91
2022/04/04 03:22:32;;;;;;;;;11.00;9.75;;;;;5.96;51.24;102058.00;2440274;28;45512;-91
2022/04/04 03:23:42;;;;;;;;;13.00;11.75;;;;;5.96;51.63;102063.22;2433572;28;47082;-84
2022/04/04 03:24:52;;;;;;;;;15.50;13.75;;;;;5.96;51.21;102067.56;2446786;28;45377;-86
2022/04/04 03:26:03;;;;;;;;;14.25;12.25;;;;;5.95;50.87;102060.59;2441000;28;45323;-86
2022/04/04 03:27:14;;;;;;;;;15.25;13.75;;;;;5.92;51.24;102063.19;2441442;28;45283;-85
2022/04/04 03:28:25;;;;;;;;;12.25;11.25;;;;;5.92;51.58;102061.47;2441128;28;45343;-85
2022/04/04 03:29:35;;;;;;;;;12.50;11.50;;;;;5.90;51.59;102055.31;2441341;28;45239;-85
2022/04/04 03:30:46;;;;;;;;;13.00;12.00;;;;;5.89;51.49;102050.97;2440362;28;48342;-85
2022/04/04 03:31:58;;;;;;;;;14.00;12.00;;;;;5.91;51.57;102061.44;2440963;28;44653;-84
2022/04/04 03:33:09;;;;;;;;;12.00;10.00;;;;;5.91;51.22;102058.81;2441134;28;45373;-84
2022/04/04 03:34:19;;;;;;;;;12.50;12.25;;;;;5.88;51.56;102057.06;2442402;28;45253;-84
2022/04/04 03:35:31;;;;;;;;;12.50;11.75;;;;;5.90;51.39;102052.72;2451031;27;45442;-84
2022/04/04 03:36:41;;;;;;;;;11.75;10.00;;;;;5.90;51.31;102059.69;2443654;27;45304;-83
2022/04/04 03:37:53;;;;;;;;;13.75;10.50;;;;;5.90;51.09;102057.94;2447592;28;45441;-84
2022/04/04 03:39:04;;;;;;;;;12.25;12.25;;;;;5.87;51.41;102052.72;2447546;28;45247;-83
2022/04/04 03:40:16;;;;;;;;;7.50;7.25;;;;;5.88;51.50;102050.97;2441170;28;46087;-85
2022/04/04 03:41:26;;;;;;;;;12.25;11.00;;;;;5.87;51.19;102047.50;2446971;28;45223;-85
2022/04/04 03:42:37;;;;;;;;;17.75;11.75;;;;;5.85;51.37;102050.06;2441068;28;46073;-85
2022/04/04 03:43:47;;;;;;;;;11.50;10.50;;;;;5.85;51.49;102044.84;2441395;28;44773;-85
2022/04/04 03:44:57;;;;;;;;;12.75;12.25;;;;;5.83;51.91;102043.09;2440245;28;47252;-85
2022/04/04 03:46:08;;;;;;;;;11.75;11.75;;;;;5.86;51.34;102045.72;2444877;28;45227;-85
2022/04/04 03:47:18;;;;;;;;;13.25;12.25;;;;;5.85;51.53;102042.25;2449170;28;47048;-85
2022/04/04 03:48:28;;;;;;;;;10.00;10.00;;;;;5.82;51.56;102039.63;2440635;28;45272;-85
2022/04/04 03:49:39;;;;;;;;;9.75;9.75;;;;;5.83;51.63;102038.75;2447996;28;45477;-84
2022/04/04 03:50:51;;;;;;;;;13.75;11.00;;;;;5.82;51.52;102037.03;2450905;27;45169;-84
2022/04/04 03:52:01;;;;;;;;;12.25;11.00;;;;;5.82;51.58;102041.34;2441362;28;46387;-86
2022/04/04 03:53:12;;;;;;;;;11.25;10.25;;;;;5.81;51.58;102040.47;2440255;28;45354;-86
2022/04/04 03:54:22;;;;;;;;;13.75;11.50;;;;;5.81;51.86;102037.00;2443856;28;47159;-86
2022/04/04 03:55:39;;;;;;;;;12.75;11.50;;;;;5.80;51.49;102032.66;2440833;28;45409;-88
2022/04/04 03:56:49;;;;;;;;;12.75;12.00;;;;;5.78;51.89;102037.00;2452017;27;47896;-89
2022/04/04 03:58:02;;;;;;;;;13.50;13.50;;;;;5.77;51.71;102036.09;2454639;27;45492;-88
2022/04/04 03:59:13;;;;;;;;;12.50;11.50;;;;;5.78;51.47;102037.84;2440092;28;48128;-88
2022/04/04 04:00:25;;;;;;;;;17.00;15.00;;;;;5.77;51.50;102030.00;2440703;28;45434;-88
2022/04/04 04:01:35;;;;;;;;;13.00;12.75;;;;;5.74;51.57;102028.25;2440972;28;46749;-88
2022/04/04 04:02:46;;;;;;;;;14.75;14.75;;;;;5.77;51.86;102032.63;2441243;28;45322;-93
2022/04/04 04:03:56;;;;;;;;;8.75;7.00;;;;;5.74;51.69;102025.63;2440889;28;47975;-94
2022/04/04 04:05:08;;;;;;;;;11.75;10.75;;;;;5.72;51.95;102028.25;2440856;28;44657;-94
2022/04/04 04:06:18;;;;;;;;;14.50;11.75;;;;;5.74;51.86;102031.75;2441880;28;45399;-94
2022/04/04 04:07:28;;;;;;;;;12.75;12.75;;;;;5.71;52.12;102030.81;2441418;28;45235;-94
2022/04/04 04:08:44;;;;;;;;;12.00;11.75;;;;;5.69;51.70;102022.13;2441317;28;45465;-94
2022/04/04 04:09:54;;;;;;;;;12.25;12.25;;;;;5.70;52.06;102026.47;2441545;28;45248;-87
2022/04/04 04:11:05;;;;;;;;;13.75;11.50;;;;;5.68;51.81;102026.44;2442850;28;48118;-87
2022/04/04 04:12:15;;;;;;;;;15.00;13.25;;;;;5.65;51.58;102021.22;2442572;28;45212;-87
2022/04/04 04:13:26;;;;;;;;;12.75;11.50;;;;;5.64;51.80;102022.06;2450083;28;45337;-87
2022/04/04 04:14:37;;;;;;;;;14.75;14.00;;;;;5.63;52.24;102028.13;2441987;27;45248;-88
2022/04/04 04:15:48;;;;;;;;;12.75;12.50;;;;;5.61;52.21;102025.53;2446500;27;47481;-87
2022/04/04 04:16:59;;;;;;;;;12.75;12.75;;;;;5.62;52.10;102032.50;2459814;27;45281;-88
2022/04/04 04:18:09;;;;;;;;;15.00;11.75;;;;;5.61;52.18;102025.53;2447563;28;46413;-87
2022/04/04 04:20:48;;;;;;;;;15.50;13.50;;;;;5.58;52.21;102016.81;2449344;28;45224;-87
2022/04/04 04:21:59;;;;;;;;;19.00;13.25;;;;;5.57;51.87;102023.75;2441117;28;45311;-87
2022/04/04 04:23:09;;;;;;;;;12.50;10.75;;;;;5.54;52.28;102018.50;2447946;28;45369;-88
2022/04/04 04:24:19;;;;;;;;;11.50;10.50;;;;;5.53;52.14;102022.00;2449957;28;45426;-88
2022/04/04 04:25:32;;;;;;;;;17.75;12.50;;;;;5.50;52.30;102017.63;2446534;28;45423;-87
2022/04/04 04:26:42;;;;;;;;;13.00;12.50;;;;;5.51;52.04;102018.47;2440961;28;45286;-87
2022/04/04 04:27:54;;;;;;;;;16.00;13.50;;;;;5.48;52.66;102010.66;2440912;28;46197;-87
2022/04/04 04:29:04;;;;;;;;;15.00;13.00;;;;;5.49;51.58;102017.59;2440928;28;44562;-88
2022/04/04 04:30:15;;;;;;;;;17.50;13.50;;;;;5.48;52.49;102010.66;2441144;27;45246;-90
2022/04/04 04:31:26;;;;;;;;;11.75;9.75;;;;;5.44;52.42;102014.94;2446818;28;44652;-92
2022/04/04 04:32:36;;;;;;;;;14.00;14.00;;;;;5.45;52.64;102008.88;2447302;28;46918;-92
2022/04/04 04:33:46;;;;;;;;;14.00;14.00;;;;;5.43;52.41;102013.22;2440427;28;45267;-87
2022/04/04 04:34:57;;;;;;;;;19.50;16.25;;;;;5.42;52.51;102007.97;2447335;28;45417;-89
2022/04/04 04:36:07;;;;;;;;;14.00;12.75;;;;;5.40;52.56;102011.44;2441224;28;45192;-89
2022/04/04 04:37:21;;;;;;;;;17.75;14.25;;;;;5.39;52.75;102003.59;2446007;28;45267;-89
2022/04/04 04:38:31;;;;;;;;;12.75;11.75;;;;;5.38;52.37;102007.09;2448482;27;45413;-90
2022/04/04 04:39:42;;;;;;;;;14.75;13.25;;;;;5.35;52.59;102005.31;2440073;28;48083;-91
2022/04/04 04:40:53;;;;;;;;;18.50;15.50;;;;;5.37;52.64;102003.59;2439174;28;45379;-90
2022/04/04 04:42:03;;;;;;;;;6.50;6.50;;;;;5.36;52.80;102000.97;2438034;28;47256;-93
2022/04/04 04:43:14;;;;;;;;;16.00;13.00;;;;;5.34;52.72;102000.94;2442068;28;45199;-91
2022/04/04 04:44:24;;;;;;;;;15.75;14.25;;;;;5.31;52.72;101998.31;2433323;28;46824;-91
2022/04/04 04:45:35;;;;;;;;;13.75;13.75;;;;;5.30;52.89;101996.56;2441533;28;45303;-91
2022/04/04 04:46:45;;;;;;;;;14.50;13.75;;;;;5.28;52.64;101996.53;2440718;28;45733;-90
2022/04/04 04:47:56;;;;;;;;;14.25;12.25;;;;;5.28;53.45;101996.53;2441002;28;45272;-90
2022/04/04 04:49:06;;;;;;;;;17.00;12.75;;;;;5.27;52.59;101994.81;2440726;28;45290;-94
2022/04/04 04:50:19;;;;;;;;;12.25;12.00;;;;;5.26;53.20;101997.41;2444614;28;45231;-91
2022/04/04 04:51:29;;;;;;;;;19.25;15.50;;;;;5.25;52.91;101996.53;2452024;27;47321;-90
2022/04/04 04:52:41;;;;;;;;;18.00;15.00;;;;;5.23;52.91;101992.16;2454233;27;45205;-91
2022/04/04 04:53:51;;;;;;;;;20.00;15.25;;;;;5.22;52.63;101991.28;2440803;28;46606;-89
2022/04/04 04:55:04;;;;;;;;;15.25;12.50;;;;;5.22;52.84;101999.09;2441533;28;45232;-89
2022/04/04 04:56:15;;;;;;;;;13.50;12.25;;;;;5.20;52.64;101994.72;2441294;28;46495;-86
2022/04/04 04:57:25;;;;;;;;;17.00;14.50;;;;;5.20;53.04;101992.13;2448715;28;45223;-85
2022/04/04 04:58:36;;;;;;;;;16.00;14.00;;;;;5.21;53.24;102001.69;2450136;28;45472;-86
2022/04/04 04:59:47;;;;;;;;;18.00;15.25;;;;;5.18;52.75;101994.72;2450539;27;45198;-86
2022/04/04 05:00:58;;;;;;;;;17.50;14.25;;;;;5.20;53.09;101997.34;2449999;28;46801;-91
2022/04/04 05:02:08;;;;;;;;;16.50;15.50;;;;;5.18;52.95;102003.41;2460829;27;44723;-92
2022/04/04 05:03:24;;;;;;;;;13.75;13.25;;;;;5.17;53.10;101998.19;2445045;28;47502;-91
2022/04/04 05:04:35;;;;;;;;;20.75;18.50;;;;;5.13;53.05;101991.19;2456983;27;45241;-94
2022/04/04 05:05:46;;;;;;;;;19.00;16.75;;;;;5.12;53.06;102000.75;2444322;28;48016;-94
2022/04/04 05:06:56;;;;;;;;;17.75;14.00;;;;;5.13;53.22;101996.41;2450307;27;45256;-95
2022/04/04 05:08:07;;;;;;;;;19.00;16.25;;;;;5.14;53.16;101992.94;2451947;28;48021;-94
2022/04/04 05:09:18;;;;;;;;;12.50;12.50;;;;;5.13;53.16;101996.41;2443884;28;44688;-94
2022/04/04 05:10:29;;;;;;;;;18.00;15.75;;;;;5.09;53.24;101987.66;2450351;27;48032;-90
2022/04/04 05:11:39;;;;;;;;;28.75;26.00;;;;;5.10;53.37;102002.47;2458111;27;45411;-89
2022/04/04 05:12:50;;;;;;;;;26.50;21.75;;;;;5.09;53.40;102000.69;2447550;27;45455;-90
2022/04/04 05:14:00;;;;;;;;;29.25;26.50;;;;;5.08;53.75;101996.38;2446841;27;45330;-93
2022/04/04 05:15:10;;;;;;;;;38.75;28.00;;;;;5.08;53.32;102001.56;2446478;28;48005;-94
2022/04/04 05:16:27;;;;;;;;;34.00;29.00;;;;;5.07;53.13;102003.31;2439590;28;45194;-95
2022/04/04 05:17:38;;;;;;;;;36.00;29.50;;;;;5.04;53.64;101991.94;2445133;28;47255;-94
2022/04/04 05:18:48;;;;;;;;;36.25;32.00;;;;;5.03;53.27;101991.09;2448055;28;45328;-95
2022/04/04 05:19:59;;;;;;;;;37.50;33.00;;;;;5.05;53.37;101997.19;2444050;28;46829;-94
2022/04/04 05:21:09;;;;;;;;;38.00;32.00;;;;;5.05;53.42;101996.31;2444593;28;45233;-95
2022/04/04 05:22:19;;;;;;;;;39.50;33.50;;;;;5.04;53.46;101994.56;2444424;28;47029;-95
2022/04/04 05:23:31;;;;;;;;;40.25;34.75;;;;;5.03;53.60;101995.44;2449238;28;45414;-95
2022/04/04 05:24:41;;;;;;;;;45.25;36.00;;;;;5.03;53.68;101998.03;2449057;28;47269;-95
2022/04/04 05:25:52;;;;;;;;;38.75;34.75;;;;;5.02;53.66;101997.16;2448474;28;45192;-94
2022/04/04 05:27:02;;;;;;;;;38.50;33.50;;;;;5.02;53.87;101998.88;2443517;28;47038;-95
2022/04/04 05:28:12;;;;;;;;;33.00;28.75;;;;;5.00;53.58;101995.41;2452349;27;45338;-95
2022/04/04 05:29:26;;;;;;;;;37.25;32.25;;;;;5.01;53.49;101998.00;2449729;28;48339;-95